createdAt,value
2023-03-02T00:00:46.095Z,17.2
2023-03-02T00:20:48.161Z,17.1
2023-03-02T00:40:51.913Z,17.1
2023-03-02T01:00:49.627Z,17.1
2023-03-02T01:20:49.284Z,17.1
2023-03-02T01:40:51.908Z,17
2023-03-02T02:00:52.104Z,17
2023-03-02T02:20:48.261Z,16.9
2023-03-02T02:40:46.277Z,16.9
2023-03-02T03:00:48.850Z,16.9
2023-03-02T03:20:49.313Z,16.8
2023-03-02T03:40:50.306Z,16.8
2023-03-02T04:00:46.372Z,16.7
2023-03-02T04:20:46.052Z,16.8
2023-03-02T04:40:45.642Z,16.7
2023-03-02T05:01:06.884Z,16.7
2023-03-02T05:20:47.570Z,16.6
2023-03-02T05:40:46.926Z,16.6
2023-03-02T06:00:46.965Z,16.8
2023-03-02T06:21:19.354Z,17
2023-03-02T06:41:16.922Z,16.9
2023-03-02T07:01:19.094Z,17
2023-03-02T07:21:17.091Z,17
2023-03-02T07:41:10.471Z,17
2023-03-02T08:01:11.873Z,17
2023-03-02T08:21:11.876Z,17.1
2023-03-02T08:41:11.796Z,14.7
2023-03-02T09:01:17.984Z,15.6
2023-03-02T09:21:11.716Z,15.6
2023-03-02T09:41:11.632Z,16.6
2023-03-02T10:01:17.191Z,17.1
2023-03-02T10:21:11.150Z,17.1
2023-03-02T10:41:11.596Z,17.1
2023-03-02T11:01:10.969Z,17.2
2023-03-02T11:21:11.440Z,17.3
2023-03-02T11:41:10.770Z,17.4
2023-03-02T12:01:10.416Z,17.6
2023-03-02T12:21:18.188Z,17.6
2023-03-02T12:41:17.976Z,17.8
2023-03-02T13:01:12.099Z,17.7
2023-03-02T13:21:17.473Z,18
2023-03-02T13:41:17.490Z,18.1
2023-03-02T14:01:12.930Z,18.1
2023-03-02T14:21:11.927Z,18.2
2023-03-02T14:41:11.460Z,18.2
2023-03-02T15:01:11.543Z,18.2
2023-03-02T15:21:10.858Z,18.3
2023-03-02T15:41:15.276Z,18.2
2023-03-02T16:01:12.674Z,18.2
2023-03-02T16:21:11.879Z,18.2
2023-03-02T16:41:12.056Z,18.2
2023-03-02T17:01:11.768Z,18.1
2023-03-02T17:21:12.039Z,18.1
2023-03-02T17:40:50.355Z,18.2
2023-03-02T18:00:47.488Z,18.2
2023-03-02T18:20:47.340Z,18.2
2023-03-02T18:40:47.369Z,18.1
2023-03-02T19:00:46.115Z,18
2023-03-02T19:20:46.514Z,18
2023-03-02T19:40:46.698Z,17.9
2023-03-02T20:00:46.218Z,17.9
2023-03-02T20:20:46.687Z,17.9
2023-03-02T20:40:45.117Z,18
2023-03-02T21:00:46.586Z,18.1
2023-03-02T21:20:47.333Z,18
2023-03-02T21:40:46.423Z,18
2023-03-02T22:00:46.833Z,17.9
2023-03-02T22:20:48.039Z,17.8
2023-03-02T22:40:45.990Z,17.7
2023-03-02T23:00:57.775Z,17.6
2023-03-02T23:20:49.410Z,17.6
2023-03-02T23:40:45.721Z,17.5
